This is the latest recevied weather packets stored in our database for station/object AE5EW. If no packets are shown the sender has not sent any weather packets the latest 10 day(s).
| Time | Temp. | Humidity | Pressure | Rain* | Wind** | Luminosity | Snow |
|---|---|---|---|---|---|---|---|
| 1787673369 | 29.44° C | 79% | 1019 hPa | 0 mm | - | - | - |
| 1787673064 | 29.44° C | 78% | 1018.9 hPa | 0 mm | - | - | - |
| 1787672758 | 30° C | 79% | 1018.8 hPa | 0 mm | - | - | - |
| 1787672454 | 28.89° C | 80% | 1018.8 hPa | 0 mm | - | - | - |
| 1787672153 | 27.78° C | 83% | 1018.8 hPa | 0 mm | - | - | - |
| 1787671854 | 27.78° C | 83% | 1019 hPa | 0 mm | - | - | - |
| 1787671550 | 27.22° C | 86% | 1018.9 hPa | 0 mm | - | - | - |
| 1787671249 | 27.22° C | 84% | 1018.9 hPa | 0 mm | - | - | - |
| 1787670944 | 27.78° C | 84% | 1019 hPa | 0 mm | - | - | - |
| 1787670641 | 26.67° C | 85% | 1019 hPa | 0 mm | - | - | - |
| 1787670340 | 26.67° C | 86% | 1019.1 hPa | 0 mm | - | - | - |
| 1787670036 | 26.67° C | 87% | 1019.1 hPa | 0 mm | - | - | - |
| 1787669735 | 27.22° C | 86% | 1019 hPa | 0 mm | - | - | - |
| 1787669430 | 26.11° C | 88% | 1019 hPa | 0 mm | - | - | - |
| 1787669126 | 26.11° C | 87% | 1019.1 hPa | 0 mm | - | - | - |
| 1787668822 | 26.11° C | 89% | 1018.9 hPa | 0 mm | - | - | - |
| 1787668518 | 25.56° C | 89% | 1018.8 hPa | 0 mm | - | - | - |
| 1787668214 | 25.56° C | 90% | 1018.9 hPa | 0 mm | - | - | - |
| 1787667908 | 25° C | 91% | 1018.9 hPa | 0 mm | - | - | - |
| 1787667603 | 25° C | 92% | 1019 hPa | 0 mm | - | - | - |
| 1787667299 | 24.44° C | 95% | 1018.9 hPa | 0 mm | - | - | - |
| 1787666998 | 24.44° C | 96% | 1018.7 hPa | 0 mm | - | - | - |
| 1787666694 | 24.44° C | 97% | 1018.7 hPa | 0 mm | - | - | - |
| 1787666393 | 23.89° C | 98% | 1018.6 hPa | 0 mm | - | - | - |
| 1787666090 | 23.89° C | 98% | 1018.7 hPa | 0 mm | - | - | - |
* Rain latest hour (hover to see other rain measurements)
** Current wind speed in m/s (hover to see current wind gust speed)